CPH weather

Copenhagen Kastrup Airport
Copenhagen, Capital Region, Denmark

Public forecast

Using degrees Celsius for public forecast. Weather courtesy of forecast.io.

METAR (pilot weather report)

Retrieved 2017/09/25 05:20 UTC (57 seconds ago):

EKCH 250520Z 07010KT 9999 BKN009 14/13 Q1027 TEMPO SCT008

TAF (pilot weather forecast)

Forecast is more than 6 hours old.

Retrieved 2017/09/24 18:25 UTC (11 hours ago):

TAF EKCH 241714Z 2418/2518 07012KT 9999 FEW020 PROB40 2423/2508 BKN008